createdAt,value
2018-01-19T00:00:33.190Z,0
2018-01-19T00:01:33.558Z,0
2018-01-19T00:02:33.510Z,0
2018-01-19T00:03:33.486Z,0
2018-01-19T00:04:33.820Z,0
2018-01-19T00:05:33.557Z,0
2018-01-19T00:06:33.558Z,0
2018-01-19T00:07:33.850Z,0
2018-01-19T00:08:33.828Z,0
2018-01-19T00:09:33.276Z,0
2018-01-19T00:10:33.032Z,0
2018-01-19T00:11:33.888Z,0
2018-01-19T00:12:33.629Z,0
2018-01-19T00:13:33.614Z,0
2018-01-19T00:14:33.623Z,0
2018-01-19T00:15:33.688Z,0
2018-01-19T00:16:33.102Z,0
2018-01-19T00:17:33.691Z,0
2018-01-19T00:18:33.684Z,0
2018-01-19T00:19:33.667Z,0
2018-01-19T00:20:33.757Z,0
2018-01-19T00:21:33.692Z,0
2018-01-19T00:22:33.727Z,0
2018-01-19T00:23:32.900Z,0
2018-01-19T00:24:33.421Z,0
2018-01-19T00:25:33.454Z,0
2018-01-19T00:26:33.217Z,0
2018-01-19T00:27:33.537Z,0
2018-01-19T00:28:33.790Z,0
2018-01-19T00:29:33.834Z,0
2018-01-19T00:30:33.883Z,0
2018-01-19T00:31:33.293Z,0
2018-01-19T00:32:34.070Z,0
2018-01-19T00:33:33.546Z,0
2018-01-19T00:34:33.823Z,0
2018-01-19T00:35:34.130Z,0
2018-01-19T00:36:33.869Z,0
2018-01-19T00:37:34.201Z,0
2018-01-19T00:38:34.190Z,0
2018-01-19T00:39:33.069Z,0
2018-01-19T00:40:33.697Z,0
2018-01-19T00:41:33.907Z,0
2018-01-19T00:42:34.276Z,0
2018-01-19T00:43:33.973Z,0
2018-01-19T00:44:33.671Z,0
2018-01-19T00:45:33.985Z,0
2018-01-19T00:46:33.437Z,0
2018-01-19T00:47:33.681Z,0
2018-01-19T00:48:33.125Z,0
2018-01-19T00:49:33.422Z,0
2018-01-19T00:50:33.181Z,0
2018-01-19T00:51:34.011Z,0
2018-01-19T00:52:34.045Z,0
2018-01-19T00:53:33.527Z,0
2018-01-19T00:54:33.823Z,0
2018-01-19T00:55:34.149Z,0
2018-01-19T00:56:33.496Z,0
2018-01-19T00:57:34.135Z,0
2018-01-19T00:58:33.827Z,0
2018-01-19T00:59:33.584Z,0
2018-01-19T01:00:33.597Z,0
2018-01-19T01:01:33.633Z,0
2018-01-19T01:02:33.842Z,0
2018-01-19T01:03:33.912Z,0
2018-01-19T01:04:33.636Z,0
2018-01-19T01:05:33.658Z,0
2018-01-19T01:06:34.027Z,0
2018-01-19T01:07:34.561Z,0
2018-01-19T01:08:34.230Z,0
2018-01-19T01:09:33.982Z,0
2018-01-19T01:10:34.304Z,0
2018-01-19T01:11:34.051Z,0
2018-01-19T01:12:33.941Z,0
2018-01-19T01:13:34.038Z,0
2018-01-19T01:14:33.692Z,0
2018-01-19T01:15:34.315Z,0
2018-01-19T01:16:33.723Z,0
2018-01-19T01:17:34.652Z,0
2018-01-19T01:18:34.353Z,0
2018-01-19T01:19:33.770Z,0
2018-01-19T01:20:34.312Z,0
2018-01-19T01:21:33.815Z,0
2018-01-19T01:22:34.700Z,0
2018-01-19T01:23:34.695Z,0
2018-01-19T01:24:33.839Z,0
2018-01-19T01:25:34.378Z,0
2018-01-19T01:26:33.893Z,0
2018-01-19T01:27:34.117Z,0
2018-01-19T01:28:34.165Z,0
2018-01-19T01:29:34.176Z,0
2018-01-19T01:30:34.242Z,0
2018-01-19T01:31:34.259Z,0
2018-01-19T01:32:33.924Z,0
2018-01-19T01:33:34.240Z,0
2018-01-19T01:34:34.258Z,0
2018-01-19T01:35:34.009Z,0
2018-01-19T01:36:34.320Z,0
2018-01-19T01:37:33.945Z,0
2018-01-19T01:38:34.589Z,0
2018-01-19T01:39:34.331Z,0
2018-01-19T01:40:34.616Z,0
2018-01-19T01:41:34.653Z,0
2018-01-19T01:42:34.636Z,0
2018-01-19T01:43:34.652Z,0
2018-01-19T01:44:34.353Z,0
2018-01-19T01:45:34.369Z,0
2018-01-19T01:46:34.630Z,0
2018-01-19T01:47:34.117Z,0
2018-01-19T01:48:34.119Z,0
2018-01-19T01:49:34.383Z,0
2018-01-19T01:50:34.100Z,0
2018-01-19T01:51:34.756Z,0
2018-01-19T01:52:34.673Z,0
2018-01-19T01:53:34.766Z,0
2018-01-19T01:54:34.444Z,0
2018-01-19T01:55:34.718Z,0
2018-01-19T01:56:34.829Z,0
2018-01-19T01:57:34.220Z,0
2018-01-19T01:58:34.235Z,0
2018-01-19T01:59:34.208Z,0
2018-01-19T02:00:34.231Z,0
2018-01-19T02:01:34.541Z,0
2018-01-19T02:02:34.514Z,0
2018-01-19T02:03:34.553Z,0
2018-01-19T02:04:34.566Z,0
2018-01-19T02:05:34.906Z,0
2018-01-19T02:06:34.952Z,0
2018-01-19T02:07:34.604Z,0
2018-01-19T02:08:34.608Z,0
2018-01-19T02:09:34.602Z,0
2018-01-19T02:10:35.244Z,0
2018-01-19T02:11:35.232Z,0
2018-01-19T02:12:34.654Z,0
2018-01-19T02:13:36.588Z,0
2018-01-19T02:14:34.651Z,0
2018-01-19T02:15:35.026Z,0
2018-01-19T02:16:34.733Z,0
2018-01-19T02:17:35.040Z,0
2018-01-19T02:18:34.450Z,0
2018-01-19T02:19:35.011Z,0
2018-01-19T02:20:34.472Z,0
2018-01-19T02:21:35.089Z,0
2018-01-19T02:22:34.991Z,0
2018-01-19T02:23:34.799Z,0
2018-01-19T02:24:34.521Z,0
2018-01-19T02:25:34.539Z,0
2018-01-19T02:26:35.084Z,0
2018-01-19T02:27:34.531Z,0
2018-01-19T02:28:34.851Z,0
2018-01-19T02:29:34.832Z,0
2018-01-19T02:30:35.426Z,0
2018-01-19T02:31:35.115Z,0
2018-01-19T02:32:34.864Z,0
2018-01-19T02:33:34.909Z,0
2018-01-19T02:34:34.579Z,0
2018-01-19T02:35:34.890Z,0
2018-01-19T02:36:34.677Z,0
2018-01-19T02:37:34.923Z,0
2018-01-19T02:38:34.937Z,0
2018-01-19T02:39:34.959Z,0
2018-01-19T02:40:35.543Z,0
2018-01-19T02:41:35.611Z,0
2018-01-19T02:42:34.976Z,0
2018-01-19T02:43:34.982Z,0
2018-01-19T02:44:35.301Z,0
2018-01-19T02:45:34.771Z,0
2018-01-19T02:46:35.361Z,0
2018-01-19T02:47:35.059Z,0
2018-01-19T02:48:35.332Z,0
2018-01-19T02:49:35.084Z,0
2018-01-19T02:50:34.782Z,0
2018-01-19T02:51:35.627Z,0
2018-01-19T02:52:35.419Z,0
2018-01-19T02:53:34.856Z,0
2018-01-19T02:54:35.134Z,0
2018-01-19T02:55:35.359Z,0
2018-01-19T02:56:35.139Z,0
2018-01-19T02:57:35.251Z,0
2018-01-19T02:58:35.477Z,0
2018-01-19T02:59:35.456Z,0
2018-01-19T03:00:34.889Z,0
2018-01-19T03:01:36.086Z,0
2018-01-19T03:02:35.294Z,0
2018-01-19T03:03:35.487Z,0
2018-01-19T03:04:35.576Z,0
2018-01-19T03:05:35.816Z,0
2018-01-19T03:06:35.263Z,0
2018-01-19T03:07:35.544Z,0
2018-01-19T03:08:35.492Z,0
2018-01-19T03:09:35.022Z,0
2018-01-19T03:10:35.288Z,0
2018-01-19T03:11:35.055Z,0
2018-01-19T03:12:35.060Z,0
2018-01-19T03:13:34.766Z,0
2018-01-19T03:14:35.669Z,0
2018-01-19T03:15:35.644Z,0
2018-01-19T03:16:35.368Z,0
2018-01-19T03:17:35.364Z,0
2018-01-19T03:18:36.295Z,0
2018-01-19T03:19:35.384Z,0
2018-01-19T03:20:35.418Z,0
2018-01-19T03:21:35.150Z,0
2018-01-19T03:22:36.034Z,0
2018-01-19T03:23:35.694Z,0
2018-01-19T03:24:35.723Z,0
2018-01-19T03:25:35.461Z,0
2018-01-19T03:26:35.482Z,0
2018-01-19T03:27:35.831Z,0
2018-01-19T03:28:35.464Z,0
2018-01-19T03:29:35.794Z,0
2018-01-19T03:30:36.205Z,0
2018-01-19T03:31:36.166Z,0
2018-01-19T03:32:35.767Z,0
2018-01-19T03:33:35.823Z,0
2018-01-19T03:34:35.543Z,0
2018-01-19T03:35:36.203Z,0
2018-01-19T03:36:35.273Z,0
2018-01-19T03:37:35.321Z,0
2018-01-19T03:38:36.866Z,0
2018-01-19T03:39:35.600Z,0
2018-01-19T03:40:35.988Z,0
2018-01-19T03:41:35.493Z,0
2018-01-19T03:42:35.971Z,0
2018-01-19T03:43:36.402Z,0
2018-01-19T03:44:35.959Z,0
2018-01-19T03:45:36.278Z,0
2018-01-19T03:46:35.409Z,0
2018-01-19T03:47:35.420Z,0
2018-01-19T03:48:36.076Z,0
2018-01-19T03:49:36.300Z,0
2018-01-19T03:50:35.736Z,0
2018-01-19T03:51:35.707Z,0
2018-01-19T03:52:36.052Z,0
2018-01-19T03:53:36.041Z,0
2018-01-19T03:54:35.776Z,0
2018-01-19T03:55:35.246Z,0
2018-01-19T03:56:35.226Z,0
2018-01-19T03:57:36.435Z,0
2018-01-19T03:58:35.549Z,0
2018-01-19T03:59:35.779Z,0
2018-01-19T04:00:35.856Z,0
2018-01-19T04:01:35.578Z,0
2018-01-19T04:02:36.120Z,0
2018-01-19T04:03:35.592Z,0
2018-01-19T04:04:36.190Z,0
2018-01-19T04:05:36.482Z,0
2018-01-19T04:06:36.221Z,0
2018-01-19T04:07:36.176Z,0
2018-01-19T04:08:36.032Z,0
2018-01-19T04:09:35.934Z,0
2018-01-19T04:10:35.939Z,0
2018-01-19T04:11:35.687Z,0
2018-01-19T04:12:35.755Z,0
2018-01-19T04:14:35.769Z,0
2018-01-19T04:15:36.046Z,0
2018-01-19T04:16:36.562Z,0
2018-01-19T04:17:36.092Z,0
2018-01-19T04:18:36.332Z,0
2018-01-19T04:19:36.340Z,0
2018-01-19T04:20:36.404Z,0
2018-01-19T04:21:36.100Z,0
2018-01-19T04:22:36.665Z,0
2018-01-19T04:23:36.092Z,0
2018-01-19T04:24:36.628Z,0
2018-01-19T04:25:36.690Z,0
2018-01-19T04:26:35.837Z,0
2018-01-19T04:27:36.158Z,0
2018-01-19T04:28:36.460Z,0
2018-01-19T04:29:36.710Z,0
2018-01-19T04:30:36.507Z,0
2018-01-19T04:31:35.942Z,0
2018-01-19T04:32:36.194Z,0
2018-01-19T04:33:35.932Z,0
2018-01-19T04:34:36.228Z,0
2018-01-19T04:35:35.957Z,0
2018-01-19T04:36:35.987Z,0
2018-01-19T04:37:35.999Z,0
2018-01-19T04:38:36.280Z,0
2018-01-19T04:39:36.869Z,0
2018-01-19T04:40:36.336Z,0
2018-01-19T04:41:36.900Z,0
2018-01-19T04:42:36.037Z,0
2018-01-19T04:43:36.913Z,0
2018-01-19T04:44:36.283Z,0
2018-01-19T04:45:36.341Z,0
2018-01-19T04:46:36.326Z,0
2018-01-19T04:47:36.626Z,0
2018-01-19T04:48:36.327Z,0
2018-01-19T04:49:36.405Z,0
2018-01-19T04:50:36.111Z,0
2018-01-19T04:51:36.390Z,0
2018-01-19T04:52:36.427Z,0
2018-01-19T04:53:36.424Z,0
2018-01-19T04:54:36.484Z,0
2018-01-19T04:55:36.482Z,0
2018-01-19T04:56:37.028Z,0
2018-01-19T04:57:36.510Z,0
2018-01-19T04:58:36.425Z,0
2018-01-19T04:59:36.759Z,0
2018-01-19T05:00:36.192Z,0
2018-01-19T05:01:36.220Z,0
2018-01-19T05:02:36.545Z,0
2018-01-19T05:03:36.600Z,0
2018-01-19T05:04:36.237Z,0
2018-01-19T05:05:36.920Z,0
2018-01-19T05:06:36.869Z,0
2018-01-19T05:07:36.548Z,0
2018-01-19T05:08:36.904Z,0
2018-01-19T05:09:36.595Z,0
2018-01-19T05:10:36.709Z,0
2018-01-19T05:11:36.321Z,0
2018-01-19T05:12:36.955Z,0
2018-01-19T05:13:36.690Z,0
2018-01-19T05:14:36.920Z,0
2018-01-19T05:15:36.368Z,0
2018-01-19T05:16:36.629Z,0
2018-01-19T05:17:36.637Z,0
2018-01-19T05:18:37.421Z,0
2018-01-19T05:19:36.993Z,0
2018-01-19T05:20:36.743Z,0
2018-01-19T05:21:36.725Z,0
2018-01-19T05:22:37.280Z,0
2018-01-19T05:23:37.305Z,0
2018-01-19T05:24:36.474Z,0
2018-01-19T05:25:37.248Z,0
2018-01-19T05:26:36.805Z,0
2018-01-19T05:27:36.782Z,0
2018-01-19T05:28:36.850Z,0
2018-01-19T05:29:37.398Z,0
2018-01-19T05:30:37.138Z,0
2018-01-19T05:31:37.164Z,0
2018-01-19T05:32:36.585Z,0
2018-01-19T05:33:36.555Z,0
2018-01-19T05:34:36.896Z,0
2018-01-19T05:35:37.231Z,0
2018-01-19T05:36:36.899Z,0
2018-01-19T05:37:37.510Z,0
2018-01-19T05:38:36.618Z,0
2018-01-19T05:39:36.360Z,0
2018-01-19T05:40:36.814Z,0
2018-01-19T05:41:36.644Z,0
2018-01-19T05:42:37.580Z,0
2018-01-19T05:43:37.297Z,0
2018-01-19T05:44:37.084Z,0
2018-01-19T05:45:36.419Z,0
2018-01-19T05:46:37.263Z,0
2018-01-19T05:47:37.289Z,0
2018-01-19T05:48:37.020Z,0
2018-01-19T05:49:37.344Z,0
2018-01-19T05:50:37.191Z,0
2018-01-19T05:51:37.015Z,0
2018-01-19T05:52:36.482Z,0
2018-01-19T05:53:37.111Z,0
2018-01-19T05:54:37.077Z,0
2018-01-19T05:55:37.486Z,0
2018-01-19T05:56:37.129Z,0
2018-01-19T05:57:37.389Z,0
2018-01-19T05:58:37.173Z,0
2018-01-19T05:59:36.593Z,0
2018-01-19T06:00:36.852Z,0
2018-01-19T06:01:37.784Z,0
2018-01-19T06:02:37.156Z,0
2018-01-19T06:03:37.489Z,0
2018-01-19T06:04:36.915Z,0
2018-01-19T06:05:37.298Z,0
2018-01-19T06:06:37.246Z,0
2018-01-19T06:07:37.303Z,0
2018-01-19T06:08:37.577Z,0
2018-01-19T06:09:37.601Z,0
2018-01-19T06:10:37.279Z,0
2018-01-19T06:11:36.755Z,0
2018-01-19T06:12:37.591Z,0
2018-01-19T06:13:37.308Z,0
2018-01-19T06:14:37.973Z,0
2018-01-19T06:15:37.406Z,0
2018-01-19T06:16:37.625Z,0
2018-01-19T06:17:37.416Z,0
2018-01-19T06:18:37.407Z,0
2018-01-19T06:19:37.725Z,0
2018-01-19T06:20:37.696Z,0
2018-01-19T06:21:36.843Z,0
2018-01-19T06:22:37.125Z,0
2018-01-19T06:23:37.169Z,0
2018-01-19T06:24:37.380Z,0
2018-01-19T06:25:36.905Z,0
2018-01-19T06:26:37.487Z,0
2018-01-19T06:27:37.801Z,0
2018-01-19T06:28:37.452Z,0
2018-01-19T06:29:36.894Z,0
2018-01-19T06:30:37.790Z,0
2018-01-19T06:31:37.499Z,0
2018-01-19T06:32:37.749Z,0
2018-01-19T06:33:37.885Z,0
2018-01-19T06:34:37.231Z,0
2018-01-19T06:35:37.547Z,0
2018-01-19T06:36:37.306Z,0
2018-01-19T06:37:37.912Z,0
2018-01-19T06:38:37.609Z,0
2018-01-19T06:39:37.913Z,0
2018-01-19T06:40:38.207Z,0
2018-01-19T06:41:37.315Z,0
2018-01-19T06:42:37.610Z,0
2018-01-19T06:43:37.975Z,0
2018-01-19T06:44:37.934Z,0
2018-01-19T06:45:37.954Z,0
2018-01-19T06:46:37.406Z,0
2018-01-19T06:47:37.361Z,0
2018-01-19T06:48:37.674Z,0
2018-01-19T06:49:38.056Z,0
2018-01-19T06:50:37.178Z,0
2018-01-19T06:51:37.475Z,0
2018-01-19T06:52:37.426Z,0
2018-01-19T06:53:37.454Z,0
2018-01-19T06:54:37.802Z,0
2018-01-19T06:55:38.043Z,0
2018-01-19T06:56:38.080Z,0
2018-01-19T06:57:37.542Z,0
2018-01-19T06:58:37.797Z,0
2018-01-19T06:59:37.214Z,0
2018-01-19T07:00:38.185Z,0
2018-01-19T07:01:38.152Z,0
2018-01-19T07:02:37.845Z,0
2018-01-19T07:03:38.429Z,0
2018-01-19T07:04:37.885Z,0
2018-01-19T07:05:37.894Z,0
2018-01-19T07:06:38.342Z,0
2018-01-19T07:07:37.894Z,0
2018-01-19T07:08:38.217Z,0
2018-01-19T07:09:37.679Z,0
2018-01-19T07:10:38.250Z,0
2018-01-19T07:11:38.009Z,0
2018-01-19T07:12:37.945Z,0
2018-01-19T07:13:37.973Z,0
2018-01-19T07:14:38.298Z,0
2018-01-19T07:15:38.322Z,0
2018-01-19T07:16:38.004Z,0
2018-01-19T07:17:38.555Z,0
2018-01-19T07:18:38.070Z,0
2018-01-19T07:19:37.774Z,0
2018-01-19T07:20:38.345Z,0
2018-01-19T07:21:38.342Z,0
2018-01-19T07:22:38.095Z,0
2018-01-19T07:23:38.043Z,0
2018-01-19T07:24:38.356Z,0
2018-01-19T07:25:38.080Z,0
2018-01-19T07:26:37.848Z,0
2018-01-19T07:27:38.135Z,0
2018-01-19T07:28:38.136Z,0
2018-01-19T07:29:38.450Z,0
2018-01-19T07:30:37.903Z,0
2018-01-19T07:31:38.783Z,0
2018-01-19T07:32:38.809Z,0
2018-01-19T07:33:38.500Z,0
2018-01-19T07:34:38.473Z,0
2018-01-19T07:35:38.247Z,0
2018-01-19T07:36:38.300Z,0
2018-01-19T07:37:38.531Z,0
2018-01-19T07:38:38.237Z,0
2018-01-19T07:39:37.696Z,0
2018-01-19T07:40:38.062Z,0
2018-01-19T07:41:38.638Z,0
2018-01-19T07:42:38.565Z,0
2018-01-19T07:43:38.307Z,0
2018-01-19T07:44:38.383Z,0
2018-01-19T07:45:38.359Z,0
2018-01-19T07:46:38.423Z,0
2018-01-19T07:47:38.347Z,0
2018-01-19T07:48:38.655Z,0
2018-01-19T07:49:38.403Z,0
2018-01-19T07:50:38.708Z,0
2018-01-19T07:51:38.472Z,0
2018-01-19T07:52:38.438Z,0
2018-01-19T07:53:38.454Z,0
2018-01-19T07:54:39.035Z,0
2018-01-19T07:55:38.160Z,0
2018-01-19T07:56:38.538Z,0
2018-01-19T07:57:38.409Z,0
2018-01-19T07:58:38.453Z,0
2018-01-19T07:59:38.782Z,0
2018-01-19T08:00:38.205Z,0
2018-01-19T08:01:38.790Z,0
2018-01-19T08:02:38.515Z,0
2018-01-19T08:03:39.175Z,5
2018-01-19T08:04:38.868Z,5
2018-01-19T08:05:38.846Z,5
2018-01-19T08:06:38.307Z,5
2018-01-19T08:07:38.877Z,5
2018-01-19T08:08:38.340Z,5
2018-01-19T08:09:38.888Z,5
2018-01-19T08:10:38.303Z,5
2018-01-19T08:11:38.654Z,5
2018-01-19T08:12:38.908Z,5
2018-01-19T08:13:38.395Z,5
2018-01-19T08:14:38.953Z,5
2018-01-19T08:15:38.974Z,5
2018-01-19T08:16:38.994Z,5
2018-01-19T08:17:38.080Z,5
2018-01-19T08:18:39.019Z,10
2018-01-19T08:19:38.736Z,10
2018-01-19T08:20:38.438Z,10
2018-01-19T08:21:39.077Z,10
2018-01-19T08:22:38.725Z,10
2018-01-19T08:23:38.743Z,15
2018-01-19T08:24:39.037Z,15
2018-01-19T08:25:38.806Z,15
2018-01-19T08:26:39.453Z,10
2018-01-19T08:27:38.808Z,10
2018-01-19T08:28:38.769Z,10
2018-01-19T08:29:38.777Z,10
2018-01-19T08:30:39.443Z,10
2018-01-19T08:31:38.861Z,10
2018-01-19T08:32:38.629Z,10
2018-01-19T08:33:38.888Z,10
2018-01-19T08:34:39.117Z,5
2018-01-19T08:35:38.919Z,10
2018-01-19T08:36:39.184Z,10
2018-01-19T08:37:38.990Z,10
2018-01-19T08:38:38.896Z,10
2018-01-19T08:39:38.639Z,10
2018-01-19T08:40:38.971Z,10
2018-01-19T08:41:39.006Z,10
2018-01-19T08:42:38.373Z,5
2018-01-19T08:43:39.265Z,5
2018-01-19T08:44:39.287Z,5
2018-01-19T08:45:38.723Z,10
2018-01-19T08:46:38.806Z,10
2018-01-19T08:47:39.095Z,10
2018-01-19T08:48:38.714Z,10
2018-01-19T08:49:38.786Z,10
2018-01-19T08:50:39.314Z,5
2018-01-19T08:51:38.476Z,5
2018-01-19T08:52:38.770Z,5
2018-01-19T08:53:38.794Z,5
2018-01-19T08:54:39.095Z,5
2018-01-19T08:55:39.450Z,5
2018-01-19T08:56:38.586Z,5
2018-01-19T08:57:39.185Z,5
2018-01-19T08:58:39.203Z,5
2018-01-19T08:59:39.460Z,5
2018-01-19T09:00:39.487Z,5
2018-01-19T09:01:39.551Z,5
2018-01-19T09:02:38.931Z,5
2018-01-19T09:03:38.691Z,5
2018-01-19T09:04:39.563Z,5
2018-01-19T09:05:38.904Z,5
2018-01-19T09:06:38.975Z,10
2018-01-19T09:07:39.586Z,10
2018-01-19T09:08:38.993Z,10
2018-01-19T09:09:38.977Z,10
2018-01-19T09:10:39.276Z,10
2018-01-19T09:11:39.846Z,10
2018-01-19T09:12:39.308Z,10
2018-01-19T09:13:39.586Z,10
2018-01-19T09:14:39.844Z,10
2018-01-19T09:15:39.384Z,10
2018-01-19T09:16:39.684Z,10
2018-01-19T09:17:39.376Z,10
2018-01-19T09:18:39.696Z,10
2018-01-19T09:19:39.401Z,10
2018-01-19T09:20:39.101Z,10
2018-01-19T09:21:39.242Z,10
2018-01-19T09:22:40.006Z,10
2018-01-19T09:23:39.709Z,10
2018-01-19T09:24:39.747Z,10
2018-01-19T09:25:39.797Z,5
2018-01-19T09:26:39.854Z,5
2018-01-19T09:27:39.818Z,5
2018-01-19T09:28:39.766Z,5
2018-01-19T09:29:39.744Z,5
2018-01-19T09:30:39.555Z,10
2018-01-19T09:31:39.834Z,10
2018-01-19T09:32:39.324Z,10
2018-01-19T09:33:39.881Z,15
2018-01-19T09:34:39.861Z,15
2018-01-19T09:35:39.320Z,15
2018-01-19T09:36:40.226Z,20
2018-01-19T09:37:39.602Z,20
2018-01-19T09:38:39.916Z,20
2018-01-19T09:39:40.233Z,20
2018-01-19T09:40:39.113Z,20
2018-01-19T09:41:39.670Z,20
2018-01-19T09:42:39.438Z,15
2018-01-19T09:43:39.377Z,15
2018-01-19T09:44:39.453Z,15
2018-01-19T09:45:39.673Z,15
2018-01-19T09:46:40.008Z,15
2018-01-19T09:47:40.100Z,15
2018-01-19T09:48:39.731Z,15
2018-01-19T09:49:40.303Z,15
2018-01-19T09:50:40.150Z,15
2018-01-19T09:51:39.468Z,15
2018-01-19T09:52:40.073Z,15
2018-01-19T09:53:39.556Z,15
2018-01-19T09:54:40.165Z,15
2018-01-19T09:55:39.497Z,10
2018-01-19T09:56:39.833Z,10
2018-01-19T09:57:40.216Z,10
2018-01-19T09:58:39.532Z,10
2018-01-19T09:59:40.444Z,10
2018-01-19T10:00:39.877Z,10
2018-01-19T10:01:40.529Z,5
2018-01-19T10:02:39.996Z,5
2018-01-19T10:03:39.655Z,5
2018-01-19T10:04:39.936Z,5
2018-01-19T10:05:39.630Z,5
2018-01-19T10:06:39.675Z,5
2018-01-19T10:07:39.719Z,5
2018-01-19T10:08:39.678Z,5
2018-01-19T10:09:39.687Z,5
2018-01-19T10:10:40.032Z,5
2018-01-19T10:11:39.982Z,5
2018-01-19T10:12:40.333Z,10
2018-01-19T10:13:40.063Z,10
2018-01-19T10:14:40.058Z,10
2018-01-19T10:15:39.524Z,10
2018-01-19T10:16:39.786Z,10
2018-01-19T10:17:40.149Z,10
2018-01-19T10:18:40.394Z,10
2018-01-19T10:19:40.165Z,10
2018-01-19T10:20:40.739Z,10
2018-01-19T10:21:40.141Z,10
2018-01-19T10:22:40.529Z,10
2018-01-19T10:23:40.482Z,10
2018-01-19T10:24:39.906Z,10
2018-01-19T10:25:39.925Z,10
2018-01-19T10:26:40.513Z,10
2018-01-19T10:27:39.699Z,10
2018-01-19T10:28:40.227Z,10
2018-01-19T10:29:40.257Z,10
2018-01-19T10:30:40.544Z,10
2018-01-19T10:31:40.548Z,10
2018-01-19T10:32:40.320Z,10
2018-01-19T10:33:40.343Z,10
2018-01-19T10:34:40.547Z,10
2018-01-19T10:35:40.610Z,10
2018-01-19T10:36:40.293Z,10
2018-01-19T10:37:40.840Z,10
2018-01-19T10:38:40.601Z,10
2018-01-19T10:39:40.682Z,15
2018-01-19T10:40:40.371Z,15
2018-01-19T10:41:40.080Z,15
2018-01-19T10:42:40.689Z,15
2018-01-19T10:43:40.150Z,15
2018-01-19T10:44:40.402Z,15
2018-01-19T10:45:41.044Z,15
2018-01-19T10:46:40.125Z,15
2018-01-19T10:47:40.707Z,15
2018-01-19T10:48:40.466Z,15
2018-01-19T10:49:40.499Z,10
2018-01-19T10:50:40.196Z,10
2018-01-19T10:51:40.521Z,10
2018-01-19T10:52:40.720Z,10
2018-01-19T10:53:39.966Z,10
2018-01-19T10:54:40.895Z,10
2018-01-19T10:55:40.803Z,10
2018-01-19T10:56:40.859Z,10
2018-01-19T10:57:40.619Z,10
2018-01-19T10:58:40.331Z,10
2018-01-19T10:59:40.605Z,10
2018-01-19T11:00:40.578Z,10
2018-01-19T11:01:40.125Z,10
2018-01-19T11:02:40.597Z,15
2018-01-19T11:03:40.352Z,15
2018-01-19T11:04:40.652Z,15
2018-01-19T11:05:40.706Z,15
2018-01-19T11:06:40.993Z,15
2018-01-19T11:07:40.760Z,20
2018-01-19T11:08:40.691Z,20
2018-01-19T11:09:40.508Z,20
2018-01-19T11:10:40.741Z,20
2018-01-19T11:11:40.752Z,20
2018-01-19T11:12:40.769Z,20
2018-01-19T11:13:40.529Z,20
2018-01-19T11:14:40.473Z,20
2018-01-19T11:15:40.498Z,20
2018-01-19T11:16:40.486Z,20
2018-01-19T11:17:40.889Z,20
2018-01-19T11:18:41.091Z,20
2018-01-19T11:19:40.907Z,20
2018-01-19T11:20:40.891Z,20
2018-01-19T11:21:40.880Z,20
2018-01-19T11:22:40.609Z,20
2018-01-19T11:23:40.883Z,20
2018-01-19T11:24:40.610Z,20
2018-01-19T11:25:41.452Z,20
2018-01-19T11:26:40.876Z,20
2018-01-19T11:27:40.960Z,20
2018-01-19T11:28:41.498Z,20
2018-01-19T11:29:40.978Z,20
2018-01-19T11:30:40.707Z,20
2018-01-19T11:31:40.692Z,20
2018-01-19T11:32:41.031Z,20
2018-01-19T11:33:41.016Z,20
2018-01-19T11:34:41.026Z,20
2018-01-19T11:35:40.986Z,20
2018-01-19T11:36:40.518Z,20
2018-01-19T11:37:40.796Z,20
2018-01-19T11:38:41.045Z,15
2018-01-19T11:39:40.859Z,15
2018-01-19T11:40:41.697Z,15
2018-01-19T11:41:41.125Z,20
2018-01-19T11:42:41.510Z,20
2018-01-19T11:43:41.187Z,20
2018-01-19T11:44:41.173Z,15
2018-01-19T11:45:41.148Z,15
2018-01-19T11:46:41.159Z,15
2018-01-19T11:47:41.504Z,15
2018-01-19T11:48:41.247Z,15
2018-01-19T11:49:41.208Z,15
2018-01-19T11:50:41.246Z,15
2018-01-19T11:51:41.565Z,15
2018-01-19T11:52:41.317Z,20
2018-01-19T11:53:41.240Z,20
2018-01-19T11:54:41.345Z,20
2018-01-19T11:55:41.011Z,25
2018-01-19T11:56:41.616Z,20
2018-01-19T11:57:41.911Z,20
2018-01-19T11:58:41.642Z,20
2018-01-19T11:59:41.045Z,15
2018-01-19T12:00:40.800Z,15
2018-01-19T12:01:41.683Z,15
2018-01-19T12:02:41.395Z,15
2018-01-19T12:03:41.508Z,15
2018-01-19T12:04:41.132Z,10
2018-01-19T12:05:41.732Z,10
2018-01-19T12:06:41.144Z,10
2018-01-19T12:07:40.900Z,10
2018-01-19T12:08:41.774Z,15
2018-01-19T12:09:41.747Z,15
2018-01-19T12:10:41.482Z,15
2018-01-19T12:11:41.576Z,15
2018-01-19T12:12:41.537Z,15
2018-01-19T12:13:41.319Z,15
2018-01-19T12:14:41.874Z,15
2018-01-19T12:15:41.523Z,20
2018-01-19T12:16:41.580Z,20
2018-01-19T12:17:42.166Z,20
2018-01-19T12:18:41.622Z,25
2018-01-19T12:19:41.357Z,25
2018-01-19T12:20:41.962Z,25
2018-01-19T12:21:41.950Z,30
2018-01-19T12:22:41.416Z,30
2018-01-19T12:23:42.012Z,30
2018-01-19T12:24:41.721Z,30
2018-01-19T12:25:41.977Z,30
2018-01-19T12:26:41.431Z,35
2018-01-19T12:27:41.723Z,30
2018-01-19T12:28:41.697Z,35
2018-01-19T12:29:41.754Z,30
2018-01-19T12:30:41.445Z,25
2018-01-19T12:31:42.091Z,25
2018-01-19T12:32:41.753Z,20
2018-01-19T12:33:41.847Z,20
2018-01-19T12:34:41.550Z,20
2018-01-19T12:35:42.349Z,20
2018-01-19T12:36:41.567Z,15
2018-01-19T12:37:42.110Z,15
2018-01-19T12:38:42.171Z,15
2018-01-19T12:39:42.481Z,10
2018-01-19T12:40:42.135Z,10
2018-01-19T12:41:42.198Z,10
2018-01-19T12:42:41.942Z,10
2018-01-19T12:43:41.989Z,10
2018-01-19T12:44:42.261Z,10
2018-01-19T12:45:42.257Z,10
2018-01-19T12:46:42.008Z,10
2018-01-19T12:47:41.977Z,10
2018-01-19T12:48:42.036Z,10
2018-01-19T12:49:42.325Z,10
2018-01-19T12:50:41.756Z,10
2018-01-19T12:51:41.738Z,10
2018-01-19T12:52:42.370Z,10
2018-01-19T12:53:41.837Z,10
2018-01-19T12:54:42.687Z,10
2018-01-19T12:55:41.831Z,10
2018-01-19T12:56:41.783Z,10
2018-01-19T12:57:41.812Z,10
2018-01-19T12:58:42.194Z,10
2018-01-19T12:59:42.432Z,10
2018-01-19T13:00:41.593Z,10
2018-01-19T13:01:41.633Z,10
2018-01-19T13:02:42.708Z,10
2018-01-19T13:03:42.314Z,10
2018-01-19T13:04:41.894Z,10
2018-01-19T13:05:42.469Z,10
2018-01-19T13:06:42.804Z,10
2018-01-19T13:07:41.926Z,10
2018-01-19T13:08:42.318Z,10
2018-01-19T13:09:42.296Z,10
2018-01-19T13:10:42.608Z,10
2018-01-19T13:11:42.041Z,15
2018-01-19T13:12:42.325Z,15
2018-01-19T13:13:42.645Z,20
2018-01-19T13:14:42.411Z,20
2018-01-19T13:15:42.342Z,15
2018-01-19T13:16:42.350Z,15
2018-01-19T13:17:42.086Z,15
2018-01-19T13:18:42.675Z,15
2018-01-19T13:19:42.148Z,15
2018-01-19T13:20:42.732Z,15
2018-01-19T13:21:42.447Z,10
2018-01-19T13:22:42.700Z,10
2018-01-19T13:23:43.000Z,10
2018-01-19T13:24:43.047Z,10
2018-01-19T13:25:42.448Z,10
2018-01-19T13:26:42.545Z,10
2018-01-19T13:27:42.187Z,10
2018-01-19T13:28:42.261Z,10
2018-01-19T13:29:42.596Z,10
2018-01-19T13:30:42.866Z,10
2018-01-19T13:31:42.598Z,10
2018-01-19T13:32:42.287Z,10
2018-01-19T13:33:42.884Z,10
2018-01-19T13:34:42.862Z,10
2018-01-19T13:35:42.944Z,10
2018-01-19T13:36:42.315Z,10
2018-01-19T13:37:42.981Z,10
2018-01-19T13:38:42.072Z,10
2018-01-19T13:39:43.260Z,10
2018-01-19T13:40:42.680Z,5
2018-01-19T13:41:42.712Z,5
2018-01-19T13:42:42.934Z,5
2018-01-19T13:43:43.298Z,10
2018-01-19T13:44:43.030Z,10
2018-01-19T13:45:42.767Z,5
2018-01-19T13:46:43.010Z,5
2018-01-19T13:47:42.800Z,5
2018-01-19T13:48:43.354Z,5
2018-01-19T13:49:43.039Z,5
2018-01-19T13:50:42.813Z,5
2018-01-19T13:51:42.813Z,5
2018-01-19T13:52:43.460Z,5
2018-01-19T13:53:43.178Z,5
2018-01-19T13:54:43.183Z,5
2018-01-19T13:55:43.172Z,5
2018-01-19T13:56:43.212Z,5
2018-01-19T13:57:42.610Z,5
2018-01-19T13:58:43.465Z,0
2018-01-19T13:59:42.650Z,5
2018-01-19T14:00:43.240Z,5
2018-01-19T14:01:42.915Z,0
2018-01-19T14:02:43.262Z,0
2018-01-19T14:03:43.268Z,0
2018-01-19T14:04:43.312Z,0
2018-01-19T14:05:43.007Z,0
2018-01-19T14:06:43.331Z,0
2018-01-19T14:07:43.662Z,0
2018-01-19T14:08:43.357Z,0
2018-01-19T14:09:43.374Z,0
2018-01-19T14:10:43.617Z,0
2018-01-19T14:11:43.346Z,0
2018-01-19T14:12:43.698Z,0
2018-01-19T14:13:43.403Z,0
2018-01-19T14:14:43.178Z,0
2018-01-19T14:15:43.084Z,0
2018-01-19T14:16:43.782Z,0
2018-01-19T14:17:42.840Z,0
2018-01-19T14:18:43.202Z,0
2018-01-19T14:19:43.190Z,0
2018-01-19T14:20:43.207Z,0
2018-01-19T14:21:43.216Z,0
2018-01-19T14:22:43.217Z,0
2018-01-19T14:23:43.247Z,0
2018-01-19T14:24:43.316Z,0
2018-01-19T14:25:43.873Z,0
2018-01-19T14:26:43.573Z,0
2018-01-19T14:27:43.284Z,0
2018-01-19T14:28:43.041Z,0
2018-01-19T14:29:43.394Z,0
2018-01-19T14:30:43.331Z,0
2018-01-19T14:31:43.029Z,0
2018-01-19T14:32:43.404Z,0
2018-01-19T14:33:43.349Z,0
2018-01-19T14:34:43.681Z,0
2018-01-19T14:35:43.418Z,0
2018-01-19T14:36:42.819Z,0
2018-01-19T14:37:43.447Z,0